Time;durP1;ratioP1;P1;durP2;ratioP2;P2;SDS_P1;SDS_P2;PMS_P1;PMS_P2;Temp;Humidity;BMP_temperature;BMP_pressure;BME280_temperature;BME280_humidity;BME280_pressure;Samples;Min_cycle;Max_cycle;Signal;HPM_P1;HPM_P2
2022/10/12 00:00:58;;;;;;;27.60;13.87;;;12.20;99.90;;;;;;5042912;23;20589;-73
2022/10/12 00:02:58;;;;;;;31.93;15.37;;;12.10;99.90;;;;;;5043510;23;20580;-74
2022/10/12 00:04:59;;;;;;;32.93;15.60;;;12.20;99.90;;;;;;5043727;23;20226;-74
2022/10/12 00:06:59;;;;;;;28.50;13.73;;;12.10;99.90;;;;;;5043376;23;20186;-73
2022/10/12 00:09:00;;;;;;;32.73;15.97;;;12.20;99.90;;;;;;5043506;23;20195;-74
2022/10/12 00:11:01;;;;;;;30.47;15.50;;;12.30;99.90;;;;;;5042721;23;20163;-73
2022/10/12 00:13:01;;;;;;;31.40;14.57;;;12.10;99.90;;;;;;5043302;23;20189;-73
2022/10/12 00:15:02;;;;;;;29.27;14.40;;;12.10;99.90;;;;;;5042131;23;20179;-73
2022/10/12 00:17:03;;;;;;;27.83;13.63;;;12.00;99.90;;;;;;5065909;23;20162;-73
2022/10/12 00:19:03;;;;;;;35.30;14.67;;;12.00;99.90;;;;;;5043235;23;20680;-73
2022/10/12 00:21:13;;;;;;;30.10;14.70;;;11.90;99.90;;;;;;5042645;23;20209;-72
2022/10/12 00:23:14;;;;;;;22.37;12.60;;;11.90;99.90;;;;;;5043064;23;20250;-73
2022/10/12 00:25:14;;;;;;;32.90;15.47;;;12.10;99.90;;;;;;5043450;23;20175;-73
2022/10/12 00:27:15;;;;;;;25.97;14.07;;;12.10;99.90;;;;;;5043355;23;20209;-73
2022/10/12 00:29:15;;;;;;;28.63;14.23;;;12.10;99.90;;;;;;5042877;23;20168;-73
2022/10/12 00:31:18;;;;;;;26.53;14.87;;;12.10;99.90;;;;;;5042624;23;20622;-72
2022/10/12 00:33:18;;;;;;;33.57;15.93;;;12.10;99.90;;;;;;5041519;23;20201;-75
2022/10/12 00:35:19;;;;;;;33.13;15.00;;;12.00;99.90;;;;;;5043215;23;20177;-75
2022/10/12 00:37:19;;;;;;;30.27;14.70;;;12.00;99.90;;;;;;5043227;23;20163;-75
2022/10/12 00:39:20;;;;;;;24.03;13.10;;;12.00;99.90;;;;;;5043150;23;20631;-75
2022/10/12 00:41:24;;;;;;;26.50;14.23;;;11.90;99.90;;;;;;5042693;23;20162;-75
2022/10/12 00:43:33;;;;;;;29.53;15.07;;;12.00;99.90;;;;;;5041928;23;20598;-75
2022/10/12 00:45:33;;;;;;;27.53;13.57;;;12.10;99.90;;;;;;5043155;23;20183;-75
2022/10/12 00:47:37;;;;;;;24.97;13.13;;;11.90;99.90;;;;;;5043276;23;20246;-75
2022/10/12 00:49:38;;;;;;;26.33;13.87;;;12.00;99.90;;;;;;5041420;23;20167;-75
2022/10/12 00:51:40;;;;;;;28.03;13.50;;;12.00;99.90;;;;;;5042506;23;20202;-75
2022/10/12 00:53:47;;;;;;;27.97;13.37;;;12.10;99.90;;;;;;5043556;23;20190;-75
2022/10/12 00:55:51;;;;;;;30.90;13.50;;;12.20;99.90;;;;;;5043648;23;20203;-74
2022/10/12 00:57:53;;;;;;;30.70;13.87;;;12.20;99.90;;;;;;5042308;23;20163;-75
2022/10/12 01:00:05;;;;;;;26.20;13.97;;;12.10;99.90;;;;;;5044103;23;20163;-74
2022/10/12 01:02:06;;;;;;;31.27;14.40;;;12.20;99.90;;;;;;5041788;23;20225;-74
2022/10/12 01:04:07;;;;;;;29.13;15.00;;;12.10;99.90;;;;;;5043513;23;20155;-75
2022/10/12 01:06:08;;;;;;;29.07;14.60;;;12.00;99.90;;;;;;5043445;23;20230;-74
2022/10/12 01:08:08;;;;;;;29.03;15.30;;;12.10;99.90;;;;;;5043844;23;20187;-74
2022/10/12 01:10:09;;;;;;;36.77;14.30;;;12.00;99.90;;;;;;5043129;23;20159;-75
2022/10/12 01:12:10;;;;;;;29.57;15.30;;;12.00;99.90;;;;;;5041448;23;20222;-74
2022/10/12 01:14:11;;;;;;;24.60;13.70;;;12.00;99.90;;;;;;5043693;23;20167;-75
2022/10/12 01:16:42;;;;;;;30.53;15.23;;;12.00;99.90;;;;;;5043400;23;20600;-74
2022/10/12 01:18:49;;;;;;;25.47;14.10;;;12.00;99.90;;;;;;5043110;23;20668;-75
2022/10/12 01:21:17;;;;;;;28.97;14.93;;;12.10;99.90;;;;;;5041127;23;20166;-75
2022/10/12 01:23:35;;;;;;;30.73;15.13;;;12.10;99.90;;;;;;5043128;23;20218;-75
2022/10/12 01:26:02;;;;;;;31.47;14.70;;;12.10;99.90;;;;;;5043416;23;20183;-74
2022/10/12 01:28:21;;;;;;;31.20;14.47;;;12.00;99.90;;;;;;5043068;23;20159;-74
2022/10/12 01:30:27;;;;;;;34.10;15.20;;;12.00;99.90;;;;;;5042120;23;20163;-74
2022/10/12 01:32:52;;;;;;;30.13;14.53;;;12.00;99.90;;;;;;5046402;23;20191;-74
2022/10/12 01:35:21;;;;;;;32.10;14.47;;;11.80;99.90;;;;;;5066851;23;20205;-74
2022/10/12 01:37:27;;;;;;;26.93;14.77;;;11.80;99.90;;;;;;5041398;23;20166;-74
2022/10/12 01:39:50;;;;;;;29.63;13.70;;;11.80;99.90;;;;;;5067078;23;20182;-75
2022/10/12 01:41:58;;;;;;;26.23;13.47;;;11.80;99.90;;;;;;5040544;23;20245;-74
2022/10/12 01:43:58;;;;;;;31.77;15.17;;;11.80;99.90;;;;;;5067194;23;20161;-74
2022/10/12 01:46:27;;;;;;;33.97;15.50;;;11.80;99.90;;;;;;5041091;23;20187;-74
2022/10/12 01:48:27;;;;;;;34.57;16.33;;;11.80;99.90;;;;;;5025566;23;20171;-74
2022/10/12 01:50:55;;;;;;;39.70;15.63;;;11.70;99.90;;;;;;5066037;23;20169;-74
2022/10/12 01:53:01;;;;;;;33.43;15.47;;;11.70;99.90;;;;;;5066798;23;20202;-74
2022/10/12 01:55:24;;;;;;;35.33;15.27;;;11.70;99.90;;;;;;5067581;23;20594;-75
2022/10/12 01:57:33;;;;;;;32.27;16.17;;;11.60;99.90;;;;;;5067042;23;20154;-74
2022/10/12 01:59:53;;;;;;;31.93;15.43;;;11.60;99.90;;;;;;5066739;23;20158;-74
2022/10/12 02:02:14;;;;;;;37.57;15.77;;;11.70;99.90;;;;;;5066176;23;20643;-74
2022/10/12 02:04:34;;;;;;;40.43;18.23;;;11.70;99.90;;;;;;5066897;23;20266;-73
2022/10/12 02:06:42;;;;;;;40.00;16.43;;;11.70;99.90;;;;;;5038699;23;20163;-74
2022/10/12 02:09:04;;;;;;;38.13;16.23;;;11.70;99.90;;;;;;5066927;23;20166;-75
2022/10/12 02:11:10;;;;;;;36.47;17.37;;;11.70;99.90;;;;;;5066066;23;20616;-75
2022/10/12 02:13:13;;;;;;;34.53;15.90;;;11.70;99.90;;;;;;5040672;23;20668;-73
2022/10/12 02:15:15;;;;;;;44.27;16.80;;;11.80;99.90;;;;;;5040711;23;20195;-73
2022/10/12 02:17:19;;;;;;;37.90;16.80;;;11.90;99.90;;;;;;5066478;23;20162;-74
2022/10/12 02:19:26;;;;;;;30.00;15.17;;;11.80;99.90;;;;;;5066899;23;20249;-74
2022/10/12 02:21:30;;;;;;;31.53;15.47;;;11.90;99.90;;;;;;5065806;23;20155;-75
2022/10/12 02:23:33;;;;;;;26.20;13.80;;;12.00;99.90;;;;;;5065982;23;20162;-74
2022/10/12 02:25:34;;;;;;;31.33;14.80;;;11.90;99.90;;;;;;5067123;23;20194;-74
2022/10/12 02:27:39;;;;;;;31.13;14.93;;;11.60;99.90;;;;;;5066825;23;20304;-75
2022/10/12 02:29:43;;;;;;;32.33;15.57;;;11.70;99.90;;;;;;5066809;23;20165;-75
2022/10/12 02:31:57;;;;;;;27.40;12.87;;;11.60;99.90;;;;;;5066051;23;20167;-74
2022/10/12 02:34:15;;;;;;;25.03;12.67;;;11.50;99.90;;;;;;5066524;23;20647;-74
2022/10/12 02:36:26;;;;;;;30.97;14.70;;;11.40;99.90;;;;;;5067015;23;20158;-73
2022/10/12 02:38:33;;;;;;;33.33;13.50;;;11.40;99.90;;;;;;5066688;23;20663;-77
2022/10/12 02:40:40;;;;;;;29.27;14.13;;;11.40;99.90;;;;;;5066334;23;20716;-73
2022/10/12 02:42:48;;;;;;;28.90;14.20;;;11.60;99.90;;;;;;5066525;23;20674;-74
2022/10/12 02:44:50;;;;;;;32.43;15.40;;;11.70;99.90;;;;;;5066338;23;20181;-75
2022/10/12 02:46:53;;;;;;;32.83;14.67;;;11.80;99.90;;;;;;5066321;23;20169;-74
2022/10/12 02:48:57;;;;;;;32.77;15.70;;;11.70;99.90;;;;;;5066303;23;20245;-74
2022/10/12 02:51:00;;;;;;;27.70;14.33;;;11.70;99.90;;;;;;5039832;23;20170;-74
2022/10/12 02:53:00;;;;;;;29.53;14.47;;;11.60;99.90;;;;;;5067285;23;20209;-74
2022/10/12 02:55:02;;;;;;;33.63;15.33;;;11.50;99.90;;;;;;5068125;23;20265;-74
2022/10/12 02:57:02;;;;;;;33.30;16.47;;;11.60;99.90;;;;;;5068209;23;20166;-75
2022/10/12 02:59:03;;;;;;;36.80;15.03;;;11.60;99.90;;;;;;5042202;23;20237;-75
2022/10/12 03:01:04;;;;;;;39.50;15.47;;;11.50;99.90;;;;;;5067228;23;20170;-74
2022/10/12 03:03:04;;;;;;;27.37;13.23;;;11.60;99.90;;;;;;5042479;23;20171;-74
2022/10/12 03:05:05;;;;;;;33.33;15.17;;;11.50;99.90;;;;;;5068078;23;20178;-74
2022/10/12 03:07:06;;;;;;;34.10;14.30;;;11.60;99.90;;;;;;5067958;23;20165;-74
2022/10/12 03:09:06;;;;;;;32.57;14.60;;;11.60;99.90;;;;;;5067973;23;20618;-74
2022/10/12 03:11:10;;;;;;;29.77;14.30;;;11.50;99.90;;;;;;5067324;23;20182;-74
2022/10/12 03:13:11;;;;;;;28.57;13.13;;;11.60;99.90;;;;;;5042088;23;20199;-75
2022/10/12 03:15:12;;;;;;;30.97;13.90;;;11.50;99.90;;;;;;5066270;23;20229;-74
2022/10/12 03:17:12;;;;;;;34.67;15.23;;;11.50;99.90;;;;;;5068056;23;20158;-74
2022/10/12 03:19:13;;;;;;;28.27;14.40;;;11.60;99.90;;;;;;5067729;23;20159;-74
2022/10/12 03:21:14;;;;;;;30.60;15.03;;;11.50;99.90;;;;;;5067196;23;20150;-74
2022/10/12 03:23:15;;;;;;;31.13;14.37;;;11.60;99.90;;;;;;5042786;23;20163;-74
2022/10/12 03:25:15;;;;;;;32.20;15.00;;;11.40;99.90;;;;;;5069034;23;20278;-75
2022/10/12 03:27:16;;;;;;;36.93;14.73;;;11.20;99.90;;;;;;5068688;23;20529;-75
2022/10/12 03:29:17;;;;;;;31.37;16.13;;;11.10;99.90;;;;;;5068390;23;20519;-74
2022/10/12 03:31:17;;;;;;;33.27;17.30;;;11.20;99.90;;;;;;5068039;23;20162;-74
2022/10/12 03:33:18;;;;;;;28.90;14.00;;;11.30;99.90;;;;;;5066186;23;20197;-74
2022/10/12 03:35:19;;;;;;;31.13;15.43;;;11.30;99.90;;;;;;5043939;23;20182;-74
2022/10/12 03:37:19;;;;;;;28.50;14.90;;;11.30;99.90;;;;;;5044001;23;20163;-73
2022/10/12 03:39:20;;;;;;;27.97;13.57;;;11.30;99.90;;;;;;5043900;23;20170;-74
2022/10/12 03:41:20;;;;;;;26.83;13.97;;;11.40;99.90;;;;;;5042749;23;20305;-74
2022/10/12 03:43:21;;;;;;;29.60;14.33;;;11.40;99.90;;;;;;5042069;23;20177;-74
2022/10/12 03:45:22;;;;;;;33.90;15.87;;;11.50;99.90;;;;;;5066618;23;20274;-74
2022/10/12 03:47:22;;;;;;;30.33;14.23;;;11.30;99.90;;;;;;5043773;23;20683;-74
2022/10/12 03:49:23;;;;;;;40.03;17.07;;;11.40;99.90;;;;;;5043968;23;20167;-74
2022/10/12 03:51:23;;;;;;;35.43;15.67;;;11.40;99.90;;;;;;5041378;23;20583;-73
2022/10/12 03:53:24;;;;;;;28.53;13.93;;;11.20;99.90;;;;;;5043911;23;20190;-74
2022/10/12 03:55:24;;;;;;;34.97;14.90;;;11.30;99.90;;;;;;5043812;23;20185;-74
2022/10/12 03:57:25;;;;;;;35.80;16.40;;;11.20;99.90;;;;;;5042109;23;20170;-74
2022/10/12 03:59:26;;;;;;;31.63;14.10;;;11.30;99.90;;;;;;5044187;23;20163;-74
2022/10/12 04:01:27;;;;;;;39.83;15.30;;;11.40;99.90;;;;;;5043393;23;20165;-74
2022/10/12 04:03:27;;;;;;;31.27;15.60;;;11.40;99.90;;;;;;5043853;23;20237;-75
2022/10/12 04:05:29;;;;;;;33.27;14.93;;;11.40;99.90;;;;;;5042485;23;20567;-74
2022/10/12 04:07:29;;;;;;;31.63;14.87;;;11.40;99.90;;;;;;5042232;23;20200;-74
2022/10/12 04:09:30;;;;;;;36.17;18.87;;;11.50;99.90;;;;;;5043453;23;20170;-75
2022/10/12 04:11:31;;;;;;;35.73;15.60;;;11.30;99.90;;;;;;5043541;23;20167;-74
2022/10/12 04:13:31;;;;;;;30.10;14.47;;;11.30;99.90;;;;;;5043643;23;20270;-74
2022/10/12 04:15:32;;;;;;;32.73;14.27;;;11.30;99.90;;;;;;5042947;23;20194;-74
2022/10/12 04:17:32;;;;;;;32.17;14.00;;;11.30;99.90;;;;;;5043418;23;20170;-74
2022/10/12 04:19:33;;;;;;;29.63;14.47;;;11.40;99.90;;;;;;5043377;23;20237;-74
2022/10/12 04:21:33;;;;;;;29.93;13.97;;;11.50;99.90;;;;;;5041930;23;20171;-74
2022/10/12 04:23:34;;;;;;;28.60;13.13;;;11.40;99.90;;;;;;5043902;23;20166;-74
2022/10/12 04:25:34;;;;;;;26.73;13.23;;;11.40;99.90;;;;;;5044380;23;20183;-74
2022/10/12 04:27:35;;;;;;;29.67;14.47;;;11.30;99.90;;;;;;5043972;23;20238;-73
2022/10/12 04:29:36;;;;;;;27.30;13.07;;;11.30;99.90;;;;;;5043784;23;20162;-74
2022/10/12 04:31:36;;;;;;;28.97;13.10;;;11.30;99.90;;;;;;5044010;23;20159;-75
2022/10/12 04:33:37;;;;;;;27.57;13.40;;;11.30;99.90;;;;;;5060740;23;20198;-75
2022/10/12 04:35:37;;;;;;;30.03;14.07;;;11.20;99.90;;;;;;5041760;23;20183;-74
2022/10/12 04:37:38;;;;;;;35.30;13.67;;;11.30;99.90;;;;;;5042625;23;20174;-74
2022/10/12 04:39:38;;;;;;;30.83;13.40;;;11.30;99.90;;;;;;5068107;23;20158;-74
2022/10/12 04:41:39;;;;;;;32.10;14.10;;;11.40;99.90;;;;;;5066662;23;20500;-75
2022/10/12 04:43:40;;;;;;;27.73;13.77;;;11.40;99.90;;;;;;5067773;23;20229;-75
2022/10/12 04:45:40;;;;;;;30.13;13.93;;;11.40;99.90;;;;;;5067276;23;20210;-74
2022/10/12 04:47:41;;;;;;;38.23;14.63;;;11.40;99.90;;;;;;5067439;23;20262;-74
2022/10/12 04:49:41;;;;;;;30.30;13.10;;;11.40;99.90;;;;;;5067687;23;20687;-74
2022/10/12 04:51:42;;;;;;;25.70;12.40;;;11.50;99.90;;;;;;5066828;23;20166;-74
2022/10/12 04:53:42;;;;;;;28.73;13.70;;;11.40;99.90;;;;;;5041713;23;20699;-74
2022/10/12 04:55:43;;;;;;;26.13;12.43;;;11.30;99.90;;;;;;5068199;23;20183;-74
2022/10/12 04:57:43;;;;;;;24.60;12.37;;;11.30;99.90;;;;;;5067529;23;20154;-74
2022/10/12 04:59:44;;;;;;;27.90;12.63;;;11.30;99.90;;;;;;5067296;23;20213;-74
2022/10/12 05:01:45;;;;;;;31.37;11.90;;;11.20;99.90;;;;;;5066659;23;20162;-73
2022/10/12 05:03:45;;;;;;;29.53;12.43;;;11.20;99.90;;;;;;5067370;23;20159;-74
2022/10/12 05:05:46;;;;;;;22.37;11.63;;;11.20;99.90;;;;;;5067049;23;20177;-74
2022/10/12 05:07:46;;;;;;;27.40;12.40;;;11.20;99.90;;;;;;5041547;23;20198;-74
2022/10/12 05:09:47;;;;;;;26.40;13.27;;;11.40;99.90;;;;;;5041005;23;20178;-75
2022/10/12 05:11:47;;;;;;;27.03;12.37;;;11.40;99.90;;;;;;5066484;23;20245;-74
2022/10/12 05:13:48;;;;;;;22.10;12.00;;;11.40;99.90;;;;;;5066722;23;20241;-74
2022/10/12 05:15:49;;;;;;;29.30;12.67;;;11.50;99.90;;;;;;5066846;23;20191;-72
2022/10/12 05:17:49;;;;;;;25.43;12.47;;;11.40;99.90;;;;;;5066982;23;20170;-75
2022/10/12 05:19:50;;;;;;;28.47;12.30;;;11.40;99.90;;;;;;5041232;23;20171;-73
2022/10/12 05:21:52;;;;;;;25.33;12.30;;;11.20;99.90;;;;;;5066279;23;20228;-74
2022/10/12 05:23:53;;;;;;;26.13;12.20;;;11.30;99.90;;;;;;5041303;23;20687;-74
2022/10/12 05:25:55;;;;;;;29.17;11.97;;;11.40;99.90;;;;;;5066822;23;20186;-74
2022/10/12 05:27:55;;;;;;;23.23;12.23;;;11.40;99.90;;;;;;5065342;23;20169;-75
2022/10/12 05:29:56;;;;;;;25.93;12.60;;;11.50;99.90;;;;;;5066891;23;20199;-73
2022/10/12 05:31:57;;;;;;;21.33;10.97;;;11.50;99.90;;;;;;5066042;23;20158;-74
2022/10/12 05:33:57;;;;;;;23.93;11.17;;;11.60;99.90;;;;;;5066688;23;20190;-74
2022/10/12 05:35:58;;;;;;;24.13;10.90;;;11.40;99.90;;;;;;5066485;23;20182;-74
2022/10/12 05:37:58;;;;;;;26.37;12.47;;;11.40;99.90;;;;;;5040755;23;20163;-74
2022/10/12 05:39:59;;;;;;;23.97;11.40;;;11.30;99.90;;;;;;5066592;23;20241;-74
2022/10/12 05:41:59;;;;;;;24.80;12.43;;;11.30;99.90;;;;;;5066019;23;20163;-74
2022/10/12 05:44:00;;;;;;;26.57;11.90;;;11.40;99.90;;;;;;5066899;23;20163;-74
2022/10/12 05:46:00;;;;;;;25.40;12.07;;;11.40;99.90;;;;;;5067241;23;20181;-74
2022/10/12 05:48:01;;;;;;;26.70;12.67;;;11.40;99.90;;;;;;5066702;23;20174;-74
2022/10/12 05:50:02;;;;;;;22.43;12.20;;;11.50;99.90;;;;;;5065102;23;20162;-75
2022/10/12 05:52:02;;;;;;;27.20;11.67;;;11.40;99.90;;;;;;5066006;23;20159;-75
2022/10/12 05:54:03;;;;;;;27.47;12.20;;;11.30;99.90;;;;;;5067097;23;20254;-75
2022/10/12 05:56:04;;;;;;;23.33;12.37;;;11.40;99.90;;;;;;5041000;23;20194;-75
2022/10/12 05:58:05;;;;;;;25.10;12.37;;;11.30;99.90;;;;;;5066487;23;20555;-74
2022/10/12 06:00:08;;;;;;;32.10;11.40;;;11.40;99.90;;;;;;5040655;23;20170;-75
2022/10/12 06:02:17;;;;;;;29.57;12.63;;;11.50;99.90;;;;;;5065616;23;20154;-74
2022/10/12 06:04:18;;;;;;;21.00;11.00;;;11.60;99.90;;;;;;5040722;23;20605;-74
2022/10/12 06:06:18;;;;;;;23.07;12.37;;;11.60;99.90;;;;;;5066379;23;20218;-75
2022/10/12 06:08:19;;;;;;;25.40;12.07;;;11.60;99.90;;;;;;5066575;23;20182;-75
2022/10/12 06:10:19;;;;;;;20.80;11.43;;;11.70;99.90;;;;;;5065710;23;20167;-75
2022/10/12 06:12:20;;;;;;;23.17;10.77;;;11.70;99.90;;;;;;5066176;23;20197;-75
2022/10/12 06:14:20;;;;;;;29.83;11.00;;;11.70;99.90;;;;;;5066542;23;20182;-75
2022/10/12 06:16:21;;;;;;;24.33;10.37;;;11.60;99.90;;;;;;5040977;23;20195;-75
2022/10/12 06:18:22;;;;;;;23.03;10.03;;;11.70;99.90;;;;;;5066293;23;20844;-75
2022/10/12 06:20:23;;;;;;;24.97;10.80;;;11.50;99.90;;;;;;5039844;23;20253;-74
2022/10/12 06:22:23;;;;;;;24.87;11.77;;;11.40;99.90;;;;;;5066397;23;20165;-74
2022/10/12 06:24:24;;;;;;;20.03;10.03;;;11.40;99.90;;;;;;5066630;23;20159;-75
2022/10/12 06:26:24;;;;;;;24.43;11.73;;;11.50;99.90;;;;;;5040998;23;20275;-75
2022/10/12 06:28:25;;;;;;;24.47;11.73;;;11.50;99.90;;;;;;5040526;23;20177;-75
2022/10/12 06:30:25;;;;;;;21.97;10.00;;;11.40;99.90;;;;;;5065612;23;20166;-75
2022/10/12 06:32:26;;;;;;;23.33;11.20;;;11.30;99.90;;;;;;5066555;23;20208;-74
2022/10/12 06:34:27;;;;;;;26.27;12.03;;;11.20;99.90;;;;;;5040360;23;20182;-74
2022/10/12 06:36:27;;;;;;;28.67;12.47;;;11.30;99.90;;;;;;5040638;23;20162;-74
2022/10/12 06:38:28;;;;;;;23.43;12.23;;;11.10;99.90;;;;;;5065098;23;20170;-74
2022/10/12 06:40:29;;;;;;;22.83;11.40;;;11.20;99.90;;;;;;5040129;23;20237;-75
2022/10/12 06:42:30;;;;;;;21.37;11.03;;;11.20;99.90;;;;;;5066406;23;20162;-75
2022/10/12 06:44:31;;;;;;;25.37;11.97;;;11.30;99.90;;;;;;5066734;23;20658;-74
2022/10/12 06:46:32;;;;;;;23.07;11.47;;;11.50;99.90;;;;;;5066701;23;20190;-74
2022/10/12 06:48:32;;;;;;;26.73;10.57;;;11.30;99.90;;;;;;5067387;23;20169;-74
2022/10/12 06:50:34;;;;;;;33.80;13.67;;;11.40;99.90;;;;;;5066050;23;20269;-74
2022/10/12 06:52:35;;;;;;;23.40;11.13;;;11.40;99.90;;;;;;5066542;23;20190;-74
2022/10/12 06:54:35;;;;;;;21.63;10.57;;;11.70;99.90;;;;;;5066446;23;20178;-74
2022/10/12 06:56:37;;;;;;;21.33;10.80;;;11.80;99.90;;;;;;5066362;23;20158;-74
2022/10/12 06:58:38;;;;;;;25.33;11.27;;;11.90;99.90;;;;;;5066492;23;20242;-74
2022/10/12 07:00:38;;;;;;;28.00;11.63;;;11.90;99.90;;;;;;5065985;23;20165;-74
2022/10/12 07:02:39;;;;;;;22.23;11.77;;;11.90;99.90;;;;;;5066347;23;20817;-74
2022/10/12 07:04:40;;;;;;;24.00;11.13;;;11.80;99.90;;;;;;5066557;23;20186;-74
2022/10/12 07:06:40;;;;;;;17.00;10.13;;;11.70;99.90;;;;;;5065974;23;20162;-75
2022/10/12 07:08:41;;;;;;;21.17;10.17;;;11.60;99.90;;;;;;5065991;23;20229;-74
2022/10/12 07:10:41;;;;;;;22.17;10.27;;;11.70;99.90;;;;;;5065493;23;20652;-75
2022/10/12 07:12:42;;;;;;;18.60;9.50;;;11.80;99.90;;;;;;5067110;23;20193;-72
2022/10/12 07:14:43;;;;;;;22.30;10.83;;;12.00;99.90;;;;;;5066607;23;20178;-75
2022/10/12 07:16:43;;;;;;;20.27;10.73;;;11.90;99.90;;;;;;5067035;23;20154;-75
2022/10/12 07:18:44;;;;;;;22.23;9.83;;;12.10;99.90;;;;;;5067140;23;20608;-73
2022/10/12 07:20:44;;;;;;;26.13;11.40;;;12.20;99.90;;;;;;5065360;23;20166;-73
2022/10/12 07:22:45;;;;;;;20.37;10.37;;;12.30;99.90;;;;;;5065775;23;20163;-73
2022/10/12 07:24:45;;;;;;;26.80;10.57;;;12.30;99.90;;;;;;5040846;23;20307;-74
2022/10/12 07:26:46;;;;;;;19.63;10.60;;;12.20;99.90;;;;;;5065898;23;20162;-70
2022/10/12 07:28:47;;;;;;;22.20;9.40;;;12.20;99.90;;;;;;5040192;23;20270;-74
2022/10/12 07:30:49;;;;;;;20.00;8.87;;;12.10;99.90;;;;;;5065396;23;20169;-73
2022/10/12 07:32:49;;;;;;;17.57;9.50;;;12.20;99.90;;;;;;5065866;23;20249;-72
2022/10/12 07:34:50;;;;;;;19.13;9.10;;;12.30;99.90;;;;;;5066105;23;20182;-74
2022/10/12 07:36:51;;;;;;;15.47;7.37;;;12.30;99.90;;;;;;5066011;23;20158;-73
2022/10/12 07:38:52;;;;;;;17.23;8.90;;;12.30;99.90;;;;;;5066379;23;20299;-73
2022/10/12 07:40:53;;;;;;;12.37;7.57;;;11.90;99.90;;;;;;5066679;23;20171;-73
2022/10/12 07:42:54;;;;;;;18.60;8.47;;;12.00;99.90;;;;;;5067765;23;20273;-73
2022/10/12 07:44:54;;;;;;;16.73;8.20;;;12.40;99.90;;;;;;5041861;23;20679;-73
2022/10/12 07:46:55;;;;;;;20.07;8.67;;;12.50;99.90;;;;;;5067461;23;20167;-73
2022/10/12 07:48:56;;;;;;;13.00;7.87;;;12.50;99.90;;;;;;5067528;23;20803;-73
2022/10/12 07:51:09;;;;;;;19.67;9.50;;;12.40;99.90;;;;;;5040989;23;20257;-73
2022/10/12 07:53:09;;;;;;;20.33;8.43;;;12.30;99.90;;;;;;5067398;23;20186;-73
2022/10/12 07:55:10;;;;;;;17.40;8.10;;;12.00;99.90;;;;;;5067306;23;20184;-73
2022/10/12 07:57:10;;;;;;;16.83;8.27;;;11.90;99.90;;;;;;5068118;23;20525;-73
2022/10/12 07:59:11;;;;;;;14.73;8.10;;;12.00;99.90;;;;;;5067633;23;20185;-74
2022/10/12 08:01:11;;;;;;;18.17;8.17;;;11.90;99.90;;;;;;5066775;23;20229;-74
2022/10/12 08:03:12;;;;;;;14.97;9.17;;;12.20;99.90;;;;;;5067689;23;20163;-73
2022/10/12 08:05:12;;;;;;;19.40;8.73;;;12.30;99.90;;;;;;5042125;23;20175;-73
2022/10/12 08:07:13;;;;;;;21.67;8.80;;;12.30;99.90;;;;;;5042001;23;20238;-73
2022/10/12 08:09:14;;;;;;;16.70;8.43;;;12.20;99.90;;;;;;5067727;23;20248;-73
2022/10/12 08:11:15;;;;;;;16.23;9.23;;;12.20;99.90;;;;;;5067022;23;20162;-73
2022/10/12 08:13:16;;;;;;;17.07;8.57;;;12.10;99.90;;;;;;5042010;23;20222;-73
2022/10/12 08:15:16;;;;;;;21.93;8.70;;;12.10;99.90;;;;;;5067953;23;20526;-73
2022/10/12 08:17:17;;;;;;;14.07;8.20;;;12.40;99.90;;;;;;5067438;23;20158;-73
2022/10/12 08:19:18;;;;;;;16.87;8.40;;;12.40;99.90;;;;;;5067779;23;20220;-73
2022/10/12 08:21:18;;;;;;;14.70;7.40;;;12.40;99.90;;;;;;5066909;23;20181;-72
2022/10/12 08:23:19;;;;;;;17.07;7.20;;;12.60;99.90;;;;;;5068217;23;20206;-73
2022/10/12 08:25:20;;;;;;;12.27;6.97;;;12.80;99.90;;;;;;5042585;23;20510;-73
2022/10/12 08:27:20;;;;;;;14.77;7.07;;;12.70;99.90;;;;;;5041870;23;20171;-73
2022/10/12 08:29:21;;;;;;;15.20;6.93;;;12.60;99.90;;;;;;5067717;23;20158;-73
2022/10/12 08:31:21;;;;;;;14.20;7.70;;;12.60;99.90;;;;;;5067325;23;20509;-73
2022/10/12 08:33:22;;;;;;;11.57;7.03;;;12.80;99.90;;;;;;5041384;23;20206;-73
2022/10/12 08:35:23;;;;;;;12.50;6.50;;;12.80;99.90;;;;;;5041747;23;20191;-73
2022/10/12 08:37:23;;;;;;;13.67;7.20;;;12.90;99.90;;;;;;5043889;23;20254;-73
2022/10/12 08:39:24;;;;;;;16.47;7.17;;;13.20;99.90;;;;;;5043414;23;20190;-73
2022/10/12 08:41:33;;;;;;;12.07;6.60;;;13.30;99.90;;;;;;5042810;23;20182;-73
2022/10/12 08:43:52;;;;;;;12.63;7.20;;;13.30;99.90;;;;;;5043539;23;20162;-74
2022/10/12 08:45:55;;;;;;;13.97;6.83;;;13.50;99.90;;;;;;5043674;23;20175;-73
2022/10/12 08:48:04;;;;;;;14.57;6.23;;;13.20;99.90;;;;;;5043011;23;20177;-74
2022/10/12 08:50:13;;;;;;;12.37;7.17;;;13.50;99.90;;;;;;5043306;23;20543;-73
2022/10/12 08:52:36;;;;;;;12.23;6.47;;;13.60;99.90;;;;;;5043306;23;20163;-73
2022/10/12 08:54:42;;;;;;;11.67;7.07;;;13.60;99.90;;;;;;5043560;23;20198;-74
2022/10/12 08:56:43;;;;;;;10.40;6.27;;;14.00;99.70;;;;;;5041961;23;20163;-73
2022/10/12 08:58:46;;;;;;;14.10;6.80;;;13.70;99.90;;;;;;5043781;23;20342;-74
2022/10/12 09:01:00;;;;;;;14.50;6.17;;;13.80;99.90;;;;;;5042767;23;20166;-73
2022/10/12 09:03:31;;;;;;;10.47;5.70;;;13.50;99.90;;;;;;5043563;23;20173;-74
2022/10/12 09:06:05;;;;;;;17.23;6.63;;;13.70;99.90;;;;;;5041858;23;20190;-73
2022/10/12 09:08:34;;;;;;;13.17;6.07;;;14.00;99.90;;;;;;5043290;23;20754;-74
2022/10/12 09:11:27;;;;;;;12.33;5.73;;;14.60;99.10;;;;;;5040762;23;20178;-73
2022/10/12 09:13:45;;;;;;;11.53;6.30;;;14.70;97.50;;;;;;5044006;23;20187;-73
2022/10/12 09:16:16;;;;;;;10.60;5.93;;;14.80;97.30;;;;;;5017878;23;20191;-73
2022/10/12 09:18:28;;;;;;;9.50;4.83;;;15.10;96.50;;;;;;5043070;23;20214;-73
2022/10/12 09:20:44;;;;;;;7.87;4.90;;;14.80;96.70;;;;;;5016544;23;20169;-73
2022/10/12 09:22:54;;;;;;;19.10;6.27;;;15.50;96.00;;;;;;5065602;23;20163;-73
2022/10/12 09:24:57;;;;;;;10.80;5.27;;;15.20;95.40;;;;;;5017840;23;20194;-73
2022/10/12 09:27:10;;;;;;;13.73;5.60;;;15.30;94.50;;;;;;5042677;23;20256;-73
2022/10/12 09:29:25;;;;;;;9.43;4.93;;;15.20;95.00;;;;;;5041727;23;20163;-73
2022/10/12 09:31:49;;;;;;;8.93;5.40;;;15.60;93.80;;;;;;5040564;23;20167;-73
2022/10/12 09:33:58;;;;;;;10.00;5.80;;;16.20;92.00;;;;;;5062906;23;20195;-73
2022/10/12 09:35:59;;;;;;;8.63;4.60;;;15.30;93.70;;;;;;5041348;23;20691;-73
2022/10/12 09:38:00;;;;;;;7.87;4.73;;;15.20;93.70;;;;;;5041049;23;20237;-73
2022/10/12 09:40:02;;;;;;;9.53;5.47;;;15.10;95.60;;;;;;5066990;23;20750;-73
2022/10/12 09:42:03;;;;;;;9.37;4.90;;;15.30;94.70;;;;;;5040580;23;20214;-73
2022/10/12 09:44:06;;;;;;;8.67;4.30;;;16.50;92.80;;;;;;5066882;23;20515;-73
2022/10/12 09:46:14;;;;;;;12.00;5.60;;;16.70;90.10;;;;;;5041022;23;20182;-73
2022/10/12 09:48:22;;;;;;;9.83;4.93;;;16.70;90.10;;;;;;5041756;23;20177;-73
2022/10/12 09:50:39;;;;;;;8.87;4.60;;;16.80;90.80;;;;;;5041004;23;20147;-71
2022/10/12 09:52:44;;;;;;;10.43;5.50;;;17.60;82.70;;;;;;5068471;23;20174;-71
2022/10/12 09:54:52;;;;;;;8.53;5.00;;;17.70;86.70;;;;;;5042293;23;20266;-72
2022/10/12 09:56:54;;;;;;;9.60;5.33;;;18.10;77.70;;;;;;5041963;23;20153;-72
2022/10/12 09:59:17;;;;;;;10.37;5.83;;;17.70;79.70;;;;;;5066359;23;20543;-71
2022/10/12 10:01:27;;;;;;;12.50;5.63;;;16.70;84.20;;;;;;5067224;23;20159;-71
2022/10/12 10:03:28;;;;;;;10.30;5.40;;;16.60;85.70;;;;;;5041878;23;20190;-71
2022/10/12 10:05:35;;;;;;;8.47;4.93;;;17.50;82.30;;;;;;5065800;23;20186;-72
2022/10/12 10:07:36;;;;;;;10.63;6.33;;;17.70;83.00;;;;;;5017853;23;20155;-72
2022/10/12 10:09:37;;;;;;;7.57;5.00;;;17.80;81.50;;;;;;5041465;23;20680;-73
2022/10/12 10:11:38;;;;;;;8.50;4.60;;;17.80;80.00;;;;;;5040904;23;20166;-72
2022/10/12 10:13:49;;;;;;;15.17;6.23;;;18.30;83.40;;;;;;5041442;23;20179;-72
2022/10/12 10:16:04;;;;;;;9.53;5.50;;;18.50;75.90;;;;;;5041606;23;20678;-73
2022/10/12 10:18:30;;;;;;;12.63;5.20;;;18.20;77.20;;;;;;5041118;23;20233;-73
2022/10/12 10:20:49;;;;;;;11.40;5.43;;;18.70;76.40;;;;;;5040407;23;20151;-71
2022/10/12 10:22:50;;;;;;;7.57;5.00;;;18.60;75.10;;;;;;5066779;23;20150;-72
2022/10/12 10:24:57;;;;;;;10.10;4.50;;;18.80;73.30;;;;;;5066898;23;20265;-71
2022/10/12 10:27:04;;;;;;;9.03;5.20;;;18.80;72.60;;;;;;5041311;23;20366;-70
2022/10/12 10:29:20;;;;;;;9.67;6.00;;;18.70;72.40;;;;;;5067217;23;20166;-71
2022/10/12 10:31:26;;;;;;;12.67;6.43;;;18.50;74.40;;;;;;5066245;23;20173;-71
2022/10/12 10:33:29;;;;;;;10.00;5.03;;;19.40;71.20;;;;;;5041689;23;20226;-70